AirNav   Phillips 66 Aviation Fuel
 
 1570 users online  

4O1 Snyder Airport
Snyder, Oklahoma, USA

GOING TO SNYDER?


FAA INFORMATION EFFECTIVE 29 MARCH 2018

Location

FAA Identifier: 4O1
Lat/Long: 34-37-39.8000N / 099-00-50.4000W
34-37.663333N / 099-00.840000W
34.6277222 / -99.0140000
(estimated)
Elevation: 1325 ft. / 404 m (estimated)
Variation: 08E (1985)
From city: 4 miles SW of SNYDER, OK
Time zone: UTC -5 (UTC -6 during Standard Time)
Zip code: 73566

Airport Operations

Airport use: Open to the public
Activation date: 08/1969
Control tower: no
ARTCC: FORT WORTH CENTER
FSS: MC ALESTER FLIGHT SERVICE STATION
NOTAMs facility: MLC (NOTAM-D service available)
Attendance: IREG
Wind indicator: yes
Segmented circle: no

Airport Communications

CTAF: 122.9
WX AWOS-3PT at AXS (17 nm W): 118.825 (580-477-1745)
WX ASOS at FDR (17 nm S): 132.675 (580-335-7591)

Nearby radio navigation aids

VOR radial/distance  VOR name  Freq  Var
LTSr094/12.9ALTUS VORTAC109.8005E
HBRr160/14.5HOBART VORTAC111.8010E
LAWr276/30.7LAWTON VOR/DME109.4009E
BFVr161/37.8BURNS FLAT VORTAC110.0005E

 
NDB name  Hdg/Dist  Freq  Var  ID
POST264/30.242508EPFL .--. ..-. .-..
TRAIL244/31.538809EOFZ --- ..-. --..

Airport Services

Fuel available: 100LL JET-A
FUEL AVBL ON REQ CALL 580-569-2153/2222.
Parking: hangars
Airframe service: NONE
Powerplant service: NONE
Bottled oxygen: NONE
Bulk oxygen: NONE

Runway Information

Runway 17/35

Dimensions: 2125 x 30 ft. / 648 x 9 m
Surface: asphalt, in good condition
RUNWAY 17  RUNWAY 35
Latitude: 34-37.838530N34-37.488160N
Longitude: 099-00.843597W099-00.837472W
Elevation: 1319.0 ft.1316.0 ft.
Traffic pattern: leftleft
Runway heading: 171 magnetic, 179 true351 magnetic, 359 true
Markings: nonenone
Obstructions: none30 ft. trees, 230 ft. from runway, 75 ft. left of centerline, 1:1 slope to clear
+25 FT TREES 130 FT FM RY END AND 100 FT LEFT.

Airport Ownership and Management from official FAA records

Ownership: Privately-owned
Owner: SNYDER SPRAYING SERVICE, INC.
PO BOX 280
SNYDER, OK 73566
Phone 580-569-2153
Manager: GERALD SCHULZ
PO BOX 280
SNYDER, OK 73566
Phone 580-569-2222

Airport Operational Statistics

Aircraft based on the field: 3
Single engine airplanes: 3
    
Aircraft operations: avg 54/month *
92% local general aviation
8% transient general aviation
* for 12-month period ending 29 October 2015

Instrument Procedures

There are no published instrument procedures at 4O1.

Some nearby airports with instrument procedures:

KLTS - Altus Air Force Base (13 nm W)
KAXS - Altus/Quartz Mountain Regional Airport (17 nm W)
KFDR - Frederick Regional Airport (17 nm S)
KHBR - Hobart Regional Airport (22 nm N)
F05 - Wilbarger County Airport (28 nm SW)
 
Loc | Ops | Rwys | IFR | FBO | Links
Com | Nav | Svcs | Stats | Notes

AirNav Hotels Sweepstakes
 
Area around 4O1 (Snyder Airport)
 
Road maps at: MapQuest Bing Google
 
Aerial photo
WARNING: Photo may not be current or correct
Aerial photo of 4O1 (Snyder Airport)
Photo by Bryan J. Painter
Photo taken 18-May-2008

Do you have a better or more recent aerial photo of Snyder Airport that you would like to share? If so, please send us your photo.

 
Sectional chart

 
Airport distance calculator
Flying to Snyder Airport? Find the distance to fly.

From to 4O1

Sunrise and sunset
Times for 25-Apr-2018
 Local
(UTC-5)
 Zulu
(UTC)
Morning civil twilight06:2711:27
Sunrise06:5311:53
Sunset20:1501:15
Evening civil twilight20:4101:41

Current date and time
Zulu (UTC)  25-Apr-2018 14:45:36
Local (UTC-5)  25-Apr-2018 09:45:36
 
METAR
KLTS 
13nm W 
251431Z AUTO 35011G18KT 10SM -TSRA BKN013 OVC047 07/05 A3029 RMK AO2 VIS 2 1/2 RWY17R TSE15TSB31 CIG 011 RWY17L CIG 004 RWY35R SLP255 $
KAXS 
16nm W 
251435Z AUTO 35015G19KT 7SM -VCTSRA SCT012 SCT040 OVC060 07/06 A3031 RMK AO2 LTG DSNT E THRU S P0004 T00730055
KFDR 
17nm S 
251422Z AUTO 34017KT 8SM VCTS -RA FEW014 BKN047 OVC055 08/07 A3027 RMK AO2 PK WND 35028/1410 LTG DSNT ALQDS P0000 T00830067
KHBR 
21nm N 
251429Z AUTO 36015KT 4SM -RA BR FEW009 SCT048 OVC065 07/06 A3028 RMK AO2 LTG DSNT S AND SW P0004 T00670056
TAF
KLTS 
13nm W 
251345Z 2513/2615 35015G20KT 8000 -SHRA BKN020 OVC050 QNH3002INS TEMPO 2513/2515 8000 -TSRA BKN010CB BECMG 2514/2515 34015G25KT 9000 -SHRA OVC007 QNH3022INS BECMG 2515/2516 32015G25KT 9000 -SHRA BKN010 BKN100 QNH3016INS BECMG 2519/2520 32015G25KT 9999 NSW SCT010 BKN015 BKN150 QNH3012INS BECMG 2522/2523 32010KT 9999 FEW150 QNH3009INS BECMG 2602/2603 33009KT 9999 SKC QNH3009INS TX20/2521Z TN07/2513Z
NOTAMs
Click for the latest NOTAMs
NOTAMs are issued by the DoD/FAA and will open in a separate window not controlled by AirNav.

 

 
 

FBO, Fuel Providers, and Aircraft Ground Support

  
 Business Name 
 
 Contact 
 
 Services / Description 
 
Fuel Prices
 
Comments
  
Snyder Spraying Service 580-569-2222
no information available

If you are affiliated with Snyder Spraying Service and would like to show here your services, contact info, web link, logo, and more, click here
100LL
PS $5.25 
 Updated 15-Apr-2014
 
   write
PS=Pump service
Update Fuel Prices
 

Would you like to see your business listed on this page?

 If your business provides an interesting product or service to pilots, flight crews, aircraft, or users of the Snyder Airport, you should consider listing it here.  To start the listing process, click on the button below
 
Add a business
 

Other Pages about Snyder Airport

Update a link
 
Copyright © AirNav, LLC. All rights reserved. Privacy Policy  Contact